Terminal Aerodrome Forecast
Issued by NWS Billings, MT

Home | Current Version | Previous Version | Graphics & Text | Print | Product List | Glossary On
Versions: 1 2 3 4 5 6 7 8 9 10 11 12 13 14 15 16 17 18 19 20 21 22 23 24 25 26 27 28
000
FTUS45 KBYZ 230841 AAA
TAFMLS
TAF AMD
KMLS 230841Z 2309/2406 13016G22KT P6SM FEW050 BKN120
      TEMPO 2309/2311 -SHRA BKN050
     FM231100 13011KT P6SM FEW100 BKN150
     FM231800 32011KT P6SM FEW080 BKN120=

USA.gov is the U.S. government's official web portal to all federal, state and local government web resources and services.